Time;durP1;ratioP1;P1;durP2;ratioP2;P2;SDS_P1;SDS_P2;PMS_P1;PMS_P2;Temp;Humidity;BMP_temperature;BMP_pressure;BME280_temperature;BME280_humidity;BME280_pressure;Samples;Min_cycle;Max_cycle;Signal;HPM_P1;HPM_P2
2022/05/03 00:01:44;;;;;;;21.05;15.98;;;;;;;;;;5030459;28;20052;-74
2022/05/03 00:04:16;;;;;;;21.05;15.80;;;;;;;;;;5029186;28;20108;-73
2022/05/03 00:06:56;;;;;;;20.85;15.98;;;;;;;;;;5032570;28;20031;-73
2022/05/03 00:09:30;;;;;;;19.63;15.90;;;;;;;;;;5029297;28;20082;-73
2022/05/03 00:12:01;;;;;;;22.25;16.65;;;;;;;;;;5032435;28;20017;-73
2022/05/03 00:14:27;;;;;;;18.85;16.30;;;;;;;;;;5025536;28;20025;-74
2022/05/03 00:16:53;;;;;;;20.95;16.30;;;;;;;;;;5029702;28;20403;-73
2022/05/03 00:19:18;;;;;;;19.55;16.00;;;;;;;;;;5030003;28;20029;-73
2022/05/03 00:21:44;;;;;;;19.30;16.13;;;;;;;;;;5025424;28;20025;-72
2022/05/03 00:24:10;;;;;;;19.85;16.15;;;;;;;;;;5024327;28;20045;-73
2022/05/03 00:26:35;;;;;;;20.35;16.20;;;;;;;;;;5023565;28;20379;-75
2022/05/03 00:29:01;;;;;;;17.73;15.15;;;;;;;;;;5021920;28;20026;-73
2022/05/03 00:31:26;;;;;;;23.10;16.85;;;;;;;;;;5021297;28;20507;-73
2022/05/03 00:33:55;;;;;;;20.17;16.48;;;;;;;;;;5023859;28;20235;-73
2022/05/03 00:36:21;;;;;;;20.80;16.30;;;;;;;;;;5019446;28;20554;-73
2022/05/03 00:38:47;;;;;;;22.10;17.25;;;;;;;;;;5023563;28;20021;-74
2022/05/03 00:41:16;;;;;;;19.90;16.90;;;;;;;;;;5023676;28;20489;-73
2022/05/03 00:44:00;;;;;;;24.52;18.95;;;;;;;;;;5023343;28;20033;-73
2022/05/03 00:46:28;;;;;;;22.38;18.08;;;;;;;;;;5020311;28;20022;-74
2022/05/03 00:49:11;;;;;;;24.17;18.05;;;;;;;;;;5024567;28;20029;-74
2022/05/03 00:51:45;;;;;;;24.85;19.48;;;;;;;;;;5023132;28;20088;-73
2022/05/03 00:54:18;;;;;;;26.83;19.90;;;;;;;;;;5029468;28;20267;-73
2022/05/03 00:56:46;;;;;;;22.67;18.85;;;;;;;;;;5031465;28;20025;-73
2022/05/03 00:59:40;;;;;;;23.33;18.75;;;;;;;;;;5025051;28;20044;-74
2022/05/03 01:02:07;;;;;;;24.98;18.48;;;;;;;;;;5024274;28;20030;-74
2022/05/03 01:04:40;;;;;;;23.65;18.10;;;;;;;;;;5020664;28;20025;-74
2022/05/03 01:07:06;;;;;;;24.02;19.23;;;;;;;;;;5023223;28;20021;-74
2022/05/03 01:09:35;;;;;;;25.40;19.17;;;;;;;;;;5020406;28;20025;-72
2022/05/03 01:12:19;;;;;;;22.00;18.83;;;;;;;;;;5020517;28;20029;-73
2022/05/03 01:14:48;;;;;;;22.33;19.10;;;;;;;;;;5019257;28;20658;-73
2022/05/03 01:17:16;;;;;;;27.85;21.55;;;;;;;;;;5023897;28;20121;-74
2022/05/03 01:19:58;;;;;;;25.70;21.10;;;;;;;;;;5021896;28;20047;-74
2022/05/03 01:22:36;;;;;;;24.58;20.45;;;;;;;;;;5019770;28;20041;-73
2022/05/03 01:25:10;;;;;;;25.77;21.15;;;;;;;;;;5022013;28;20041;-74
2022/05/03 01:28:11;;;;;;;25.00;20.58;;;;;;;;;;5019418;28;20040;-74
2022/05/03 01:30:37;;;;;;;21.70;18.45;;;;;;;;;;4999743;28;20116;-73
2022/05/03 01:33:06;;;;;;;24.38;18.70;;;;;;;;;;5022776;28;20163;-74
2022/05/03 01:35:37;;;;;;;21.77;19.00;;;;;;;;;;5018372;28;20024;-73
2022/05/03 01:38:08;;;;;;;24.38;19.38;;;;;;;;;;5021692;28;20494;-74
2022/05/03 01:40:44;;;;;;;24.88;19.58;;;;;;;;;;5022547;28;20506;-73
2022/05/03 01:43:16;;;;;;;26.08;20.58;;;;;;;;;;5018774;28;20357;-74
2022/05/03 01:45:41;;;;;;;23.27;18.83;;;;;;;;;;5020216;28;20310;-74
2022/05/03 01:48:10;;;;;;;23.08;18.63;;;;;;;;;;5021245;28;20044;-74
2022/05/03 01:50:45;;;;;;;23.98;19.13;;;;;;;;;;5017748;28;20416;-74
2022/05/03 01:53:10;;;;;;;25.17;18.98;;;;;;;;;;5021311;28;20234;-74
2022/05/03 01:55:51;;;;;;;22.73;18.52;;;;;;;;;;5020557;28;20501;-74
2022/05/03 01:58:17;;;;;;;23.02;18.75;;;;;;;;;;5018523;28;20041;-73
2022/05/03 02:00:44;;;;;;;23.42;19.50;;;;;;;;;;5019662;28;20389;-74
2022/05/03 02:03:27;;;;;;;23.50;19.08;;;;;;;;;;5021963;28;20730;-74
2022/05/03 02:05:58;;;;;;;23.00;18.52;;;;;;;;;;5018978;28;20031;-74
2022/05/03 02:08:24;;;;;;;23.25;19.02;;;;;;;;;;5020261;28;20049;-74
2022/05/03 02:10:57;;;;;;;24.88;18.90;;;;;;;;;;5021871;28;20017;-73
2022/05/03 02:16:29;;;;;;;22.93;19.23;;;;;;;;;;5020200;28;20028;-74
2022/05/03 02:19:12;;;;;;;25.10;20.77;;;;;;;;;;5004385;28;20262;-74
2022/05/03 02:21:37;;;;;;;;;;;;;;;;;;5020042;28;20313;-74
2022/05/03 02:24:06;;;;;;;27.23;20.97;;;;;;;;;;5022964;28;20288;-73
2022/05/03 02:26:36;;;;;;;26.15;20.17;;;;;;;;;;5021986;28;20273;-74
2022/05/03 02:29:05;;;;;;;23.40;19.42;;;;;;;;;;5021378;28;20104;-74
2022/05/03 02:31:31;;;;;;;26.65;19.75;;;;;;;;;;5020864;28;20025;-75
2022/05/03 02:34:16;;;;;;;25.58;19.95;;;;;;;;;;5023786;28;20053;-75
2022/05/03 02:36:55;;;;;;;22.60;19.58;;;;;;;;;;5018708;28;20348;-73
2022/05/03 02:39:26;;;;;;;22.40;18.70;;;;;;;;;;5023084;28;20025;-75
2022/05/03 02:41:54;;;;;;;22.40;17.85;;;;;;;;;;5020866;28;20022;-74
2022/05/03 02:44:21;;;;;;;24.20;18.63;;;;;;;;;;5021641;28;20047;-73
2022/05/03 02:47:01;;;;;;;23.85;18.20;;;;;;;;;;5019993;28;20024;-74
2022/05/03 02:49:49;;;;;;;24.27;18.80;;;;;;;;;;5020684;28;20384;-74
2022/05/03 02:52:22;;;;;;;21.15;16.55;;;;;;;;;;5025147;28;20278;-75
2022/05/03 02:55:00;;;;;;;19.88;17.00;;;;;;;;;;5025174;28;20032;-74
2022/05/03 02:57:28;;;;;;;21.15;16.77;;;;;;;;;;5024414;28;20394;-74
2022/05/03 03:02:57;;;;;;;22.67;16.98;;;;;;;;;;5024181;28;20049;-75
2022/05/03 03:05:29;;;;;;;22.95;17.17;;;;;;;;;;5025351;28;20028;-74
2022/05/03 03:08:02;;;;;;;20.35;17.17;;;;;;;;;;5035363;28;20030;-73
2022/05/03 03:10:38;;;;;;;19.85;16.48;;;;;;;;;;5029345;28;20009;-74
2022/05/03 03:13:22;;;;;;;20.77;17.15;;;;;;;;;;5029870;28;20076;-74
2022/05/03 03:15:48;;;;;;;22.90;17.05;;;;;;;;;;5022875;28;20057;-75
2022/05/03 03:18:14;;;;;;;21.00;17.42;;;;;;;;;;5024528;28;20511;-74
2022/05/03 03:20:44;;;;;;;20.45;16.55;;;;;;;;;;5020734;28;20029;-75
2022/05/03 03:23:14;;;;;;;21.85;17.20;;;;;;;;;;5024476;28;20057;-74
2022/05/03 03:25:40;;;;;;;20.42;17.67;;;;;;;;;;5023928;28;20047;-74
2022/05/03 03:28:08;;;;;;;19.70;17.30;;;;;;;;;;5022545;28;20017;-74
2022/05/03 03:30:34;;;;;;;21.95;17.45;;;;;;;;;;5022920;28;20022;-75
2022/05/03 03:33:00;;;;;;;21.63;17.65;;;;;;;;;;5023872;28;20671;-74
2022/05/03 03:35:27;;;;;;;23.02;18.42;;;;;;;;;;5023421;28;20021;-73
2022/05/03 03:37:53;;;;;;;23.55;18.45;;;;;;;;;;5021477;28;20029;-74
2022/05/03 03:40:19;;;;;;;23.20;18.35;;;;;;;;;;5024420;28;20040;-74
2022/05/03 03:42:45;;;;;;;21.65;18.45;;;;;;;;;;5020834;28;20053;-75
2022/05/03 03:45:14;;;;;;;22.73;18.48;;;;;;;;;;5024861;28;20494;-74
2022/05/03 03:47:40;;;;;;;24.80;18.35;;;;;;;;;;5022236;28;20026;-75
2022/05/03 03:50:06;;;;;;;21.55;17.02;;;;;;;;;;5024684;28;20028;-73
2022/05/03 03:52:37;;;;;;;22.42;18.25;;;;;;;;;;5022553;28;20029;-74
2022/05/03 03:55:03;;;;;;;22.10;17.65;;;;;;;;;;5023387;28;20021;-74
2022/05/03 03:57:30;;;;;;;22.98;18.02;;;;;;;;;;5006368;28;20026;-73
2022/05/03 03:59:55;;;;;;;22.33;17.70;;;;;;;;;;5021430;28;20025;-74
2022/05/03 04:02:22;;;;;;;23.45;18.27;;;;;;;;;;5023888;28;20032;-73
2022/05/03 04:04:48;;;;;;;23.98;17.75;;;;;;;;;;5021879;28;20025;-74
2022/05/03 04:07:14;;;;;;;23.33;19.15;;;;;;;;;;5006721;28;20052;-73
2022/05/03 04:09:39;;;;;;;21.45;17.83;;;;;;;;;;5022629;28;20353;-74
2022/05/03 04:12:05;;;;;;;21.67;17.95;;;;;;;;;;5025417;28;20025;-73
2022/05/03 04:14:31;;;;;;;24.15;18.60;;;;;;;;;;5019019;28;20028;-75
2022/05/03 04:16:57;;;;;;;23.27;19.02;;;;;;;;;;5022735;28;20424;-75
2022/05/03 04:19:23;;;;;;;25.90;19.50;;;;;;;;;;5024288;28;20087;-74
2022/05/03 04:21:49;;;;;;;24.13;18.98;;;;;;;;;;5020645;28;20359;-75
2022/05/03 04:24:16;;;;;;;22.25;18.25;;;;;;;;;;5023107;28;20106;-73
2022/05/03 04:26:41;;;;;;;24.67;18.77;;;;;;;;;;5030143;28;20400;-74
2022/05/03 04:29:07;;;;;;;25.10;18.83;;;;;;;;;;5026299;28;20051;-74
2022/05/03 04:31:34;;;;;;;25.92;19.00;;;;;;;;;;5023462;28;20023;-74
2022/05/03 04:34:00;;;;;;;24.25;18.88;;;;;;;;;;5023410;28;20014;-74
2022/05/03 04:36:26;;;;;;;23.98;19.70;;;;;;;;;;5022884;28;20376;-74
2022/05/03 04:38:52;;;;;;;25.75;18.90;;;;;;;;;;5021220;28;20068;-74
2022/05/03 04:41:19;;;;;;;24.10;19.30;;;;;;;;;;5024443;28;20087;-75
2022/05/03 04:43:45;;;;;;;27.10;19.48;;;;;;;;;;5021918;28;20375;-74
2022/05/03 04:46:10;;;;;;;25.70;20.40;;;;;;;;;;5022865;28;20067;-73
2022/05/03 04:48:35;;;;;;;25.77;21.17;;;;;;;;;;5021975;28;20499;-74
2022/05/03 04:51:00;;;;;;;25.15;19.85;;;;;;;;;;5022543;28;20022;-74
2022/05/03 04:53:26;;;;;;;25.58;20.58;;;;;;;;;;5023873;28;20535;-74
2022/05/03 04:55:51;;;;;;;25.88;20.13;;;;;;;;;;5022825;28;20228;-75
2022/05/03 04:58:17;;;;;;;25.95;19.98;;;;;;;;;;5023051;28;20017;-74
2022/05/03 05:00:42;;;;;;;27.25;20.67;;;;;;;;;;5020865;28;20076;-74
2022/05/03 05:03:07;;;;;;;30.20;21.90;;;;;;;;;;5024817;28;20021;-74
2022/05/03 05:05:34;;;;;;;27.58;21.80;;;;;;;;;;5020637;28;20049;-75
2022/05/03 05:08:06;;;;;;;29.30;23.27;;;;;;;;;;5005736;28;20021;-73
2022/05/03 05:10:33;;;;;;;29.63;23.42;;;;;;;;;;5023746;28;20030;-73
2022/05/03 05:13:00;;;;;;;31.13;24.95;;;;;;;;;;5026715;28;20427;-74
2022/05/03 05:15:26;;;;;;;31.20;24.75;;;;;;;;;;5029258;28;20077;-74
2022/05/03 05:17:52;;;;;;;28.90;22.80;;;;;;;;;;5026858;28;20049;-75
2022/05/03 05:20:18;;;;;;;32.05;24.63;;;;;;;;;;5019739;28;20179;-75
2022/05/03 05:22:43;;;;;;;30.83;24.85;;;;;;;;;;5019929;28;20502;-74
2022/05/03 05:25:09;;;;;;;35.83;28.55;;;;;;;;;;5004770;28;20457;-78
2022/05/03 05:27:36;;;;;;;36.45;29.98;;;;;;;;;;5022314;28;20461;-74
2022/05/03 05:30:02;;;;;;;39.15;29.77;;;;;;;;;;5016506;28;20431;-74
2022/05/03 05:32:27;;;;;;;39.25;31.50;;;;;;;;;;5021594;28;20025;-74
2022/05/03 05:34:54;;;;;;;36.30;30.42;;;;;;;;;;5018806;28;20446;-74
2022/05/03 05:37:19;;;;;;;39.83;32.00;;;;;;;;;;5021687;28;20033;-74
2022/05/03 05:39:44;;;;;;;40.97;32.15;;;;;;;;;;5023409;28;20095;-74
2022/05/03 05:42:11;;;;;;;44.17;33.70;;;;;;;;;;5024697;28;20037;-74
2022/05/03 05:44:38;;;;;;;39.88;31.70;;;;;;;;;;5019378;28;20451;-74
2022/05/03 05:47:05;;;;;;;40.40;33.05;;;;;;;;;;5021789;28;20064;-75
2022/05/03 05:49:30;;;;;;;40.47;32.90;;;;;;;;;;5023025;28;20056;-75
2022/05/03 05:53:31;;;;;;;41.88;33.45;;;;;;;;;;5019907;28;20510;-74
2022/05/03 05:54:41;;;;;;;42.33;35.45;;;;;;;;;;5022071;28;20051;-74
2022/05/03 05:57:06;;;;;;;42.05;36.50;;;;;;;;;;5005432;28;20727;-75
2022/05/03 05:59:31;;;;;;;41.72;33.67;;;;;;;;;;5021419;28;20040;-74
2022/05/03 06:01:57;;;;;;;43.08;34.85;;;;;;;;;;5020893;28;20033;-74
2022/05/03 06:04:24;;;;;;;44.15;33.38;;;;;;;;;;5026627;28;20037;-74
2022/05/03 06:06:49;;;;;;;42.53;35.13;;;;;;;;;;5018431;28;20032;-73
2022/05/03 06:09:14;;;;;;;38.22;33.03;;;;;;;;;;5023811;28;20100;-74
2022/05/03 06:11:40;;;;;;;43.75;34.63;;;;;;;;;;5003690;28;20033;-75
2022/05/03 06:14:06;;;;;;;42.40;34.13;;;;;;;;;;5020162;28;20047;-74
2022/05/03 06:16:31;;;;;;;44.70;35.47;;;;;;;;;;5019074;28;20516;-75
2022/05/03 06:18:56;;;;;;;42.85;33.13;;;;;;;;;;5018801;28;20099;-73
2022/05/03 06:21:21;;;;;;;39.00;30.60;;;;;;;;;;5002134;28;20128;-74
2022/05/03 06:23:47;;;;;;;38.97;31.55;;;;;;;;;;5022011;28;20060;-74
2022/05/03 06:26:12;;;;;;;39.65;32.63;;;;;;;;;;5020266;28;20034;-75
2022/05/03 06:28:39;;;;;;;35.97;30.80;;;;;;;;;;5021361;28;20032;-74
2022/05/03 06:31:05;;;;;;;34.85;28.55;;;;;;;;;;5015804;28;20027;-75
2022/05/03 06:33:30;;;;;;;37.42;29.95;;;;;;;;;;5019459;28;20021;-73
2022/05/03 06:35:55;;;;;;;36.35;29.70;;;;;;;;;;5017859;28;20116;-74
2022/05/03 06:38:20;;;;;;;37.47;28.80;;;;;;;;;;5021393;28;20099;-73
2022/05/03 06:40:46;;;;;;;36.42;29.15;;;;;;;;;;5003467;28;20025;-73
2022/05/03 06:43:12;;;;;;;41.22;30.75;;;;;;;;;;5002533;28;20022;-74
2022/05/03 06:45:37;;;;;;;39.85;31.88;;;;;;;;;;5019783;28;20448;-74
2022/05/03 06:48:02;;;;;;;37.40;30.63;;;;;;;;;;5020095;28;20819;-74
2022/05/03 06:50:29;;;;;;;34.00;28.52;;;;;;;;;;5019117;28;20025;-74
2022/05/03 06:52:55;;;;;;;37.22;28.63;;;;;;;;;;5018583;28;20519;-74
2022/05/03 06:55:21;;;;;;;37.25;30.88;;;;;;;;;;5022880;28;20028;-75
2022/05/03 06:57:48;;;;;;;35.25;27.42;;;;;;;;;;5018924;28;20017;-74
2022/05/03 07:00:13;;;;;;;35.40;28.20;;;;;;;;;;5019443;28;20464;-75
2022/05/03 07:02:38;;;;;;;31.95;26.08;;;;;;;;;;5021340;28;20046;-74
2022/05/03 07:05:04;;;;;;;34.67;28.92;;;;;;;;;;5020240;28;20045;-73
2022/05/03 07:07:30;;;;;;;40.90;30.25;;;;;;;;;;5023800;28;20038;-74
2022/05/03 07:09:55;;;;;;;33.88;27.27;;;;;;;;;;5019029;28;20026;-73
2022/05/03 07:12:20;;;;;;;35.03;29.15;;;;;;;;;;5025961;28;20021;-73
2022/05/03 07:14:47;;;;;;;34.90;29.27;;;;;;;;;;5025067;28;20297;-74
2022/05/03 07:22:45;;;;;;;34.13;28.38;;;;;;;;;;5010313;28;20057;-74
2022/05/03 07:22:45;;;;;;;39.60;31.00;;;;;;;;;;5024094;28;20291;-74
2022/05/03 07:25:11;;;;;;;38.72;30.65;;;;;;;;;;5020970;28;20085;-72
2022/05/03 07:27:38;;;;;;;36.65;31.08;;;;;;;;;;5023597;28;20104;-73
2022/05/03 07:30:04;;;;;;;37.17;29.80;;;;;;;;;;5002228;28;20029;-75
2022/05/03 07:32:29;;;;;;;40.88;31.88;;;;;;;;;;5022953;28;20546;-73
2022/05/03 07:34:55;;;;;;;41.33;31.63;;;;;;;;;;5003956;28;20479;-74
2022/05/03 07:37:21;;;;;;;44.08;34.25;;;;;;;;;;5008027;28;20504;-74
2022/05/03 07:39:50;;;;;;;48.13;34.70;;;;;;;;;;5026077;28;20064;-74
2022/05/03 07:42:15;;;;;;;48.72;35.65;;;;;;;;;;5009547;28;20060;-73
2022/05/03 07:44:41;;;;;;;53.47;37.67;;;;;;;;;;5021699;28;20037;-73
2022/05/03 07:47:06;;;;;;;53.38;39.40;;;;;;;;;;5008301;28;20033;-74
2022/05/03 07:49:31;;;;;;;71.10;42.75;;;;;;;;;;5027346;28;20455;-74
2022/05/03 07:51:56;;;;;;;67.45;43.22;;;;;;;;;;5022550;28;20025;-74
2022/05/03 07:54:22;;;;;;;72.75;44.17;;;;;;;;;;5026428;28;20503;-73
2022/05/03 07:56:49;;;;;;;83.25;45.05;;;;;;;;;;5007699;28;20048;-73
2022/05/03 07:59:14;;;;;;;81.88;45.58;;;;;;;;;;5004010;28;20099;-73
2022/05/03 08:01:41;;;;;;;88.30;45.88;;;;;;;;;;5022247;28;20579;-74
2022/05/03 08:04:06;;;;;;;83.30;46.28;;;;;;;;;;5022603;28;20025;-74
2022/05/03 08:06:32;;;;;;;93.93;46.78;;;;;;;;;;5024004;28;20021;-74
2022/05/03 08:08:57;;;;;;;91.93;46.95;;;;;;;;;;5021996;28;20026;-75
2022/05/03 08:11:22;;;;;;;89.45;45.30;;;;;;;;;;5023805;28;20535;-74
2022/05/03 08:13:49;;;;;;;81.57;43.60;;;;;;;;;;5021953;28;20142;-73
2022/05/03 08:16:19;;;;;;;91.05;45.50;;;;;;;;;;5022103;28;20105;-74
2022/05/03 08:18:44;;;;;;;89.45;41.63;;;;;;;;;;5022730;28;20021;-73
2022/05/03 08:21:11;;;;;;;95.38;42.97;;;;;;;;;;5023187;28;20395;-73
2022/05/03 08:23:36;;;;;;;86.53;42.55;;;;;;;;;;5022777;28;20075;-73
2022/05/03 08:26:02;;;;;;;83.03;39.88;;;;;;;;;;5023903;28;20029;-75
2022/05/03 08:28:27;;;;;;;88.38;41.53;;;;;;;;;;5021276;28;20087;-73
2022/05/03 08:30:54;;;;;;;89.30;41.97;;;;;;;;;;5022236;28;20033;-73
2022/05/03 08:33:19;;;;;;;83.10;40.03;;;;;;;;;;5007092;28;20091;-72
2022/05/03 08:35:44;;;;;;;88.80;41.72;;;;;;;;;;5024994;28;20480;-74
2022/05/03 08:43:38;;;;;;;83.95;40.65;;;;;;;;;;5023752;28;20503;-74
2022/05/03 08:46:06;;;;;;;82.07;41.00;;;;;;;;;;5021899;28;20270;-73
2022/05/03 08:48:33;;;;;;;76.57;38.78;;;;;;;;;;5024921;28;20101;-75
2022/05/03 08:50:59;;;;;;;77.45;40.08;;;;;;;;;;5022098;28;20393;-75
2022/05/03 08:53:25;;;;;;;72.63;36.80;;;;;;;;;;5024594;28;20028;-74
2022/05/03 08:55:50;;;;;;;71.50;37.00;;;;;;;;;;5023416;28;20030;-74
2022/05/03 08:58:18;;;;;;;70.40;36.30;;;;;;;;;;5020362;28;20025;-73
2022/05/03 09:00:43;;;;;;;69.30;37.25;;;;;;;;;;5021239;28;20433;-73
2022/05/03 09:03:08;;;;;;;69.38;36.90;;;;;;;;;;5026158;28;20126;-73
2022/05/03 09:05:33;;;;;;;68.93;36.53;;;;;;;;;;5024166;28;20029;-74
2022/05/03 09:08:00;;;;;;;61.10;34.65;;;;;;;;;;5021020;28;20018;-74
2022/05/03 09:10:25;;;;;;;69.82;37.60;;;;;;;;;;5023466;28;20037;-74
2022/05/03 09:12:50;;;;;;;74.35;39.03;;;;;;;;;;5021194;28;20040;-74
2022/05/03 09:15:28;;;;;;;74.90;39.42;;;;;;;;;;5019259;28;20316;-74
2022/05/03 09:17:54;;;;;;;72.32;38.53;;;;;;;;;;5023903;28;20113;-74
2022/05/03 09:25:53;;;;;;;75.43;39.35;;;;;;;;;;5023631;28;20509;-74
2022/05/03 09:28:19;;;;;;;74.30;40.75;;;;;;;;;;5019889;28;20124;-73
2022/05/03 09:30:46;;;;;;;74.57;39.22;;;;;;;;;;5021931;28;20048;-74
2022/05/03 09:33:16;;;;;;;65.68;37.20;;;;;;;;;;5021898;28;20071;-74
2022/05/03 09:35:41;;;;;;;69.40;37.50;;;;;;;;;;5021345;28;20112;-73
2022/05/03 09:38:06;;;;;;;64.60;35.10;;;;;;;;;;5020521;28;20121;-73
2022/05/03 09:40:35;;;;;;;65.78;36.25;;;;;;;;;;5022673;28;20021;-74
2022/05/03 09:43:00;;;;;;;57.83;32.72;;;;;;;;;;5018272;28;20021;-73
2022/05/03 09:45:26;;;;;;;55.60;30.42;;;;;;;;;;5019004;28;20363;-74
2022/05/03 09:47:53;;;;;;;48.15;29.50;;;;;;;;;;5022472;28;20066;-73
2022/05/03 09:50:35;;;;;;;44.88;27.67;;;;;;;;;;5020743;28;20087;-76
2022/05/03 09:53:09;;;;;;;48.83;29.13;;;;;;;;;;5020751;28;20357;-72
2022/05/03 09:55:39;;;;;;;52.63;32.45;;;;;;;;;;5021582;28;20537;-73
2022/05/03 09:58:05;;;;;;;50.25;30.83;;;;;;;;;;5017104;28;20114;-73
2022/05/03 10:00:31;;;;;;;53.65;30.60;;;;;;;;;;5019330;28;20032;-74
2022/05/03 10:02:58;;;;;;;44.15;27.48;;;;;;;;;;5022272;28;20026;-73
2022/05/03 10:05:25;;;;;;;42.67;26.90;;;;;;;;;;5002480;28;20025;-73
2022/05/03 10:07:51;;;;;;;41.97;26.13;;;;;;;;;;5022146;28;20132;-72
2022/05/03 10:10:17;;;;;;;36.95;24.77;;;;;;;;;;5020797;28;20130;-73
2022/05/03 10:12:43;;;;;;;30.25;20.63;;;;;;;;;;5021397;28;20108;-74
2022/05/03 10:15:09;;;;;;;30.67;20.73;;;;;;;;;;5018989;28;20202;-73
2022/05/03 10:20:40;;;;;;;30.10;19.25;;;;;;;;;;5021211;28;20422;-71
2022/05/03 10:23:28;;;;;;;33.80;21.27;;;;;;;;;;5020734;28;20061;-74
2022/05/03 10:25:54;;;;;;;34.25;21.10;;;;;;;;;;5022976;28;20068;-73
2022/05/03 10:28:19;;;;;;;28.48;20.52;;;;;;;;;;5019055;28;20139;-72
2022/05/03 10:31:03;;;;;;;25.75;17.58;;;;;;;;;;5020822;28;20024;-72
2022/05/03 10:33:28;;;;;;;26.92;18.38;;;;;;;;;;5020822;28;20484;-72
2022/05/03 10:35:54;;;;;;;26.35;19.40;;;;;;;;;;5020604;28;20021;-71
2022/05/03 10:38:34;;;;;;;27.67;19.77;;;;;;;;;;5021647;28;20021;-73
2022/05/03 10:40:59;;;;;;;26.00;18.73;;;;;;;;;;5021954;28;20018;-73
2022/05/03 10:43:26;;;;;;;25.17;17.90;;;;;;;;;;5018135;28;20332;-73
2022/05/03 10:45:51;;;;;;;25.70;18.05;;;;;;;;;;5020715;28;20032;-73
2022/05/03 10:48:27;;;;;;;31.00;23.08;;;;;;;;;;5021582;28;20018;-73
2022/05/03 10:50:53;;;;;;;36.55;20.88;;;;;;;;;;5021729;28;20168;-73
2022/05/03 10:53:20;;;;;;;25.98;19.60;;;;;;;;;;5019593;28;20429;-74
2022/05/03 10:56:01;;;;;;;25.70;17.70;;;;;;;;;;5006111;28;20115;-73
2022/05/03 10:58:27;;;;;;;22.75;17.33;;;;;;;;;;5016643;28;20744;-73
2022/05/03 11:01:04;;;;;;;23.92;16.25;;;;;;;;;;5022502;28;20516;-74
2022/05/03 11:03:31;;;;;;;21.98;16.00;;;;;;;;;;5019492;28;20147;-73
2022/05/03 11:06:15;;;;;;;20.52;14.43;;;;;;;;;;5019611;28;20556;-75
2022/05/03 11:11:53;;;;;;;21.33;14.98;;;;;;;;;;5022334;28;20278;-73
2022/05/03 11:14:18;;;;;;;20.58;13.73;;;;;;;;;;5022190;28;20017;-74
2022/05/03 11:16:45;;;;;;;20.80;14.82;;;;;;;;;;5024299;28;20032;-75
2022/05/03 11:19:14;;;;;;;23.77;15.13;;;;;;;;;;5024529;28;20163;-73
2022/05/03 11:21:40;;;;;;;18.83;15.38;;;;;;;;;;5022926;28;20112;-73
2022/05/03 11:24:15;;;;;;;19.92;13.35;;;;;;;;;;5023561;28;20164;-74
2022/05/03 11:26:41;;;;;;;24.08;14.27;;;;;;;;;;5029312;28;20041;-73
2022/05/03 11:29:07;;;;;;;20.27;12.30;;;;;;;;;;5024302;28;20029;-74
2022/05/03 11:31:33;;;;;;;18.65;11.60;;;;;;;;;;5010497;28;20515;-73
2022/05/03 11:33:59;;;;;;;18.77;12.80;;;;;;;;;;5032036;28;20025;-73
2022/05/03 11:36:24;;;;;;;19.67;12.30;;;;;;;;;;5030646;28;20032;-73
2022/05/03 11:38:51;;;;;;;18.70;13.20;;;;;;;;;;5035067;28;20029;-74
2022/05/03 11:41:36;;;;;;;18.98;13.10;;;;;;;;;;5005391;28;20044;-69
2022/05/03 11:44:01;;;;;;;19.67;13.25;;;;;;;;;;5022069;28;20040;-69
2022/05/03 11:46:26;;;;;;;24.17;14.20;;;;;;;;;;5020948;28;20331;-70
2022/05/03 11:48:53;;;;;;;17.27;13.68;;;;;;;;;;5025156;28;20056;-68
2022/05/03 11:56:46;;;;;;;20.63;13.13;;;;;;;;;;5026169;28;20356;-68
2022/05/03 11:59:12;;;;;;;20.77;12.95;;;;;;;;;;5022757;28;20014;-68
2022/05/03 12:01:38;;;;;;;20.48;13.85;;;;;;;;;;5022786;28;20037;-68
2022/05/03 12:04:04;;;;;;;19.38;13.20;;;;;;;;;;5024021;28;20044;-69
2022/05/03 12:06:43;;;;;;;19.42;13.40;;;;;;;;;;5021295;28;20031;-68
2022/05/03 12:09:12;;;;;;;18.98;13.38;;;;;;;;;;5025578;28;20108;-70
2022/05/03 12:12:42;;;;;;;17.00;12.02;;;;;;;;;;5026891;28;20092;-70
2022/05/03 12:14:33;;;;;;;22.25;12.40;;;;;;;;;;5022581;28;20059;-68
2022/05/03 12:16:58;;;;;;;;;;;;;;;;;;5025206;28;20116;-67
2022/05/03 12:19:23;;;;;;;15.85;10.80;;;;;;;;;;5022363;28;20015;-67
2022/05/03 12:21:49;;;;;;;15.10;10.82;;;;;;;;;;5005298;28;20032;-68
2022/05/03 12:24:15;;;;;;;14.93;10.13;;;;;;;;;;5024140;28;20049;-68
2022/05/03 12:26:41;;;;;;;13.93;10.40;;;;;;;;;;5007118;28;20445;-68
2022/05/03 12:29:07;;;;;;;18.05;9.20;;;;;;;;;;5021403;28;20064;-68
2022/05/03 12:31:35;;;;;;;12.75;9.27;;;;;;;;;;5020043;28;20028;-68
2022/05/03 12:34:01;;;;;;;18.15;9.98;;;;;;;;;;5024496;28;20022;-68
2022/05/03 12:36:31;;;;;;;12.88;9.35;;;;;;;;;;5018622;28;20033;-69
2022/05/03 12:38:56;;;;;;;13.93;10.40;;;;;;;;;;5022828;28;20053;-67
2022/05/03 12:41:22;;;;;;;14.50;9.65;;;;;;;;;;5021395;28;20530;-69
2022/05/03 12:43:58;;;;;;;16.55;9.65;;;;;;;;;;5023922;28;20037;-69
2022/05/03 12:46:28;;;;;;;13.20;9.23;;;;;;;;;;5019506;28;20017;-69
2022/05/03 12:48:53;;;;;;;14.93;10.77;;;;;;;;;;5023763;28;20029;-68
2022/05/03 12:51:19;;;;;;;12.65;9.32;;;;;;;;;;5020768;28;20037;-67
2022/05/03 12:53:46;;;;;;;13.73;10.98;;;;;;;;;;5007654;28;20022;-68
2022/05/03 12:58:58;;;;;;;12.32;8.93;;;;;;;;;;5021681;28;20116;-72
2022/05/03 13:01:23;;;;;;;16.55;9.18;;;;;;;;;;5019300;28;20037;-70
2022/05/03 13:03:49;;;;;;;17.27;9.80;;;;;;;;;;5023775;28;20094;-69
2022/05/03 13:06:14;;;;;;;14.95;9.38;;;;;;;;;;5022002;28;20156;-69
2022/05/03 13:08:39;;;;;;;16.60;9.90;;;;;;;;;;5018946;28;20424;-68
2022/05/03 13:11:04;;;;;;;18.80;9.50;;;;;;;;;;5023262;28;20482;-70
2022/05/03 13:13:30;;;;;;;19.90;10.15;;;;;;;;;;5020803;28;20026;-70
2022/05/03 13:15:55;;;;;;;15.00;8.98;;;;;;;;;;5021492;28;20018;-69
2022/05/03 13:18:21;;;;;;;16.42;8.45;;;;;;;;;;5021692;28;20018;-70
2022/05/03 13:20:46;;;;;;;19.58;9.15;;;;;;;;;;5020610;28;20104;-68
2022/05/03 13:23:11;;;;;;;17.00;8.93;;;;;;;;;;5024143;28;20125;-69
2022/05/03 13:25:37;;;;;;;24.50;9.60;;;;;;;;;;5020955;28;20032;-70
2022/05/03 13:28:02;;;;;;;24.05;10.10;;;;;;;;;;5020081;28;20385;-70
2022/05/03 13:30:28;;;;;;;22.02;9.00;;;;;;;;;;5019412;28;20453;-70
2022/05/03 13:32:53;;;;;;;17.77;8.90;;;;;;;;;;5021973;28;20519;-69
2022/05/03 13:40:49;;;;;;;15.73;9.40;;;;;;;;;;5024132;28;20124;-69
2022/05/03 13:43:15;;;;;;;16.40;9.85;;;;;;;;;;5020477;28;20108;-70
2022/05/03 13:45:40;;;;;;;16.13;9.80;;;;;;;;;;5019207;28;20124;-69
2022/05/03 13:48:05;;;;;;;16.02;10.35;;;;;;;;;;5026345;28;20116;-69
2022/05/03 13:50:31;;;;;;;17.42;10.10;;;;;;;;;;5021428;28;20411;-69
2022/05/03 13:52:56;;;;;;;20.38;8.60;;;;;;;;;;5023544;28;20022;-70
2022/05/03 13:55:22;;;;;;;22.38;8.32;;;;;;;;;;5022595;28;20844;-69
2022/05/03 13:57:48;;;;;;;19.15;7.85;;;;;;;;;;5020256;28;20025;-71
2022/05/03 14:00:13;;;;;;;18.05;9.70;;;;;;;;;;5020423;28;20387;-70
2022/05/03 14:02:42;;;;;;;17.83;8.88;;;;;;;;;;5022602;28;20503;-70
2022/05/03 14:05:08;;;;;;;15.98;8.63;;;;;;;;;;5021280;28;20025;-71
2022/05/03 14:07:34;;;;;;;19.25;9.00;;;;;;;;;;5022390;28;20087;-69
2022/05/03 14:10:00;;;;;;;18.48;8.82;;;;;;;;;;5020783;28;20084;-69
2022/05/03 14:12:26;;;;;;;18.45;9.20;;;;;;;;;;5022143;28;20362;-70
2022/05/03 14:14:51;;;;;;;22.05;9.15;;;;;;;;;;5002152;28;20018;-70
2022/05/03 14:17:16;;;;;;;17.83;8.93;;;;;;;;;;5023071;28;20383;-68
2022/05/03 14:19:41;;;;;;;19.75;8.45;;;;;;;;;;5022046;28;20362;-70
2022/05/03 14:22:07;;;;;;;18.83;6.50;;;;;;;;;;5020965;28;20018;-69
2022/05/03 14:24:33;;;;;;;18.02;6.15;;;;;;;;;;5003705;28;20053;-69
2022/05/03 14:26:58;;;;;;;19.73;5.38;;;;;;;;;;5006001;28;20025;-69
2022/05/03 14:29:24;;;;;;;16.58;6.10;;;;;;;;;;5020466;28;20021;-69
2022/05/03 14:31:51;;;;;;;18.75;5.78;;;;;;;;;;5020979;28;20120;-70
2022/05/03 14:34:16;;;;;;;17.27;5.57;;;;;;;;;;5021340;28;20064;-70
2022/05/03 14:36:41;;;;;;;20.63;6.32;;;;;;;;;;5019031;28;20045;-69
2022/05/03 14:39:06;;;;;;;16.98;5.65;;;;;;;;;;5020979;28;20364;-70
2022/05/03 14:41:32;;;;;;;16.55;5.50;;;;;;;;;;5018648;28;20052;-70
2022/05/03 14:43:57;;;;;;;15.57;6.15;;;;;;;;;;5019044;28;20407;-70
2022/05/03 14:46:22;;;;;;;19.20;6.63;;;;;;;;;;5019314;28;20427;-69
2022/05/03 14:48:48;;;;;;;21.27;5.80;;;;;;;;;;5020680;28;20441;-69
2022/05/03 14:51:13;;;;;;;14.15;5.25;;;;;;;;;;5019643;28;20029;-68
2022/05/03 14:53:38;;;;;;;16.13;5.60;;;;;;;;;;5020328;28;20705;-69
2022/05/03 15:04:15;;;;;;;18.52;5.88;;;;;;;;;;5022295;28;20056;-71
2022/05/03 15:06:41;;;;;;;10.68;4.75;;;;;;;;;;5018801;28;20026;-70
2022/05/03 15:09:10;;;;;;;16.65;5.20;;;;;;;;;;5020560;28;20017;-70
2022/05/03 15:11:36;;;;;;;17.25;5.65;;;;;;;;;;5018995;28;20032;-68